Time;durP1;ratioP1;P1;durP2;ratioP2;P2;SDS_P1;SDS_P2;PMS_P1;PMS_P2;Temp;Humidity;BMP_temperature;BMP_pressure;BME280_temperature;BME280_humidity;BME280_pressure;Samples;Min_cycle;Max_cycle;Signal;HPM_P1;HPM_P2
2023/04/19 03:55:48;;;;;;;10.73;8.60;;;7.40;99.90;;;;;;6211635;22;20228;-69
2023/04/19 03:58:15;;;;;;;9.23;8.27;;;7.40;99.90;;;;;;6217405;23;20189;-68
2023/04/19 04:00:42;;;;;;;9.25;8.35;;;7.40;99.90;;;;;;6217586;23;20259;-68
2023/04/19 04:03:08;;;;;;;9.80;8.80;;;7.40;99.90;;;;;;6217266;23;20643;-69
2023/04/19 04:05:35;;;;;;;10.10;9.05;;;7.50;99.90;;;;;;6217060;23;20561;-69
2023/04/19 04:08:02;;;;;;;11.13;8.80;;;7.40;99.90;;;;;;6218217;23;20195;-68
2023/04/19 04:10:29;;;;;;;11.75;9.93;;;7.40;99.90;;;;;;6217713;23;20180;-68
2023/04/19 04:12:57;;;;;;;10.57;9.48;;;7.40;99.90;;;;;;6217351;23;20538;-68
2023/04/19 04:15:23;;;;;;;10.80;8.95;;;7.50;99.90;;;;;;6217486;23;20197;-68
2023/04/19 04:17:51;;;;;;;10.27;9.20;;;7.50;99.90;;;;;;6217127;23;20565;-68
2023/04/19 04:20:17;;;;;;;10.38;8.68;;;7.40;99.90;;;;;;6217866;23;20223;-68
2023/04/19 04:22:46;;;;;;;9.55;8.50;;;7.40;99.90;;;;;;6217993;23;20195;-69
2023/04/19 04:25:14;;;;;;;12.02;9.25;;;7.40;99.90;;;;;;6217402;23;20250;-69
2023/04/19 04:27:42;;;;;;;9.68;8.68;;;7.50;99.90;;;;;;6217650;23;20494;-68
2023/04/19 04:30:11;;;;;;;9.80;8.80;;;7.50;99.90;;;;;;6219676;23;20188;-68
2023/04/19 04:32:39;;;;;;;10.32;9.05;;;7.50;99.90;;;;;;6217123;23;20508;-69
2023/04/19 04:35:08;;;;;;;9.80;8.20;;;7.50;99.90;;;;;;6217871;23;20231;-69
2023/04/19 04:37:35;;;;;;;9.98;8.98;;;7.50;99.90;;;;;;6217217;23;20193;-69
2023/04/19 04:40:04;;;;;;;11.73;10.23;;;7.50;99.90;;;;;;6216893;23;20187;-69
2023/04/19 04:42:31;;;;;;;9.90;8.98;;;7.50;99.90;;;;;;6216736;23;20568;-69
2023/04/19 04:45:00;;;;;;;10.55;9.40;;;7.50;99.90;;;;;;6217193;23;20228;-69
2023/04/19 04:47:33;;;;;;;10.48;9.13;;;7.50;99.90;;;;;;6217369;23;20175;-69
2023/04/19 04:50:01;;;;;;;10.75;8.75;;;7.40;99.90;;;;;;6216937;23;20479;-70
2023/04/19 04:52:27;;;;;;;9.90;8.90;;;7.50;99.90;;;;;;6216705;23;20506;-70
2023/04/19 04:54:54;;;;;;;8.95;8.05;;;7.50;99.90;;;;;;6217119;23;20227;-68
2023/04/19 04:57:21;;;;;;;9.93;8.68;;;7.50;99.90;;;;;;6216606;23;20197;-69
2023/04/19 04:59:48;;;;;;;9.65;8.73;;;7.50;99.90;;;;;;6216991;23;20181;-69
2023/04/19 05:02:14;;;;;;;10.32;9.18;;;7.50;99.90;;;;;;6217299;23;20177;-69
2023/04/19 05:04:42;;;;;;;9.68;8.63;;;7.50;99.90;;;;;;6216861;23;20196;-69
2023/04/19 05:07:09;;;;;;;9.23;8.32;;;7.50;99.90;;;;;;6216881;23;20169;-69
2023/04/19 05:09:36;;;;;;;9.65;8.50;;;7.50;99.90;;;;;;6216851;23;20177;-69
2023/04/19 05:12:03;;;;;;;10.35;8.93;;;7.50;99.90;;;;;;6216788;23;20172;-69
2023/04/19 10:40:59;;;;;;;12.23;10.93;;;10.50;99.90;;;;;;6209217;22;20195;-71
2023/04/19 10:43:27;;;;;;;12.43;10.38;;;10.30;99.90;;;;;;6215923;23;20561;-71
2023/04/19 10:46:00;;;;;;;15.57;10.25;;;10.40;99.90;;;;;;6216420;23;20172;-71
2023/04/19 10:48:37;;;;;;;11.82;10.18;;;10.80;99.90;;;;;;6216475;23;20160;-71
2023/04/19 10:51:11;;;;;;;12.60;9.93;;;11.30;99.90;;;;;;6215919;23;20226;-71
2023/04/19 10:53:48;;;;;;;12.90;9.98;;;11.70;99.90;;;;;;6215855;23;20602;-71
2023/04/19 10:56:17;;;;;;;10.82;9.15;;;12.00;99.90;;;;;;6216664;23;20238;-71
2023/04/19 10:59:14;;;;;;;11.30;8.82;;;12.40;99.90;;;;;;6216196;23;20259;-72
2023/04/19 11:01:42;;;;;;;12.10;9.13;;;12.60;99.90;;;;;;6216076;23;20176;-72
2023/04/19 11:04:10;;;;;;;10.02;7.65;;;12.40;99.90;;;;;;6216764;23;20215;-72
2023/04/19 11:06:38;;;;;;;10.55;9.15;;;12.70;99.90;;;;;;6216687;23;20613;-73
2023/04/19 11:09:06;;;;;;;9.35;8.35;;;12.50;99.90;;;;;;6215914;23;20180;-73
2023/04/19 11:11:35;;;;;;;8.88;7.88;;;12.80;99.90;;;;;;6216090;23;20177;-73
2023/04/19 11:14:03;;;;;;;9.85;8.25;;;13.00;99.90;;;;;;6216678;23;20223;-73
2023/04/19 11:16:30;;;;;;;9.10;8.02;;;13.20;99.90;;;;;;6216148;23;20206;-73
2023/04/19 11:18:57;;;;;;;10.20;8.38;;;13.30;99.90;;;;;;6216144;23;20157;-73
2023/04/19 11:21:23;;;;;;;9.27;8.10;;;13.00;99.90;;;;;;6216113;23;20192;-73
2023/04/19 11:24:06;;;;;;;8.57;7.40;;;12.80;99.90;;;;;;6215529;23;20638;-72
2023/04/19 11:26:32;;;;;;;7.85;7.05;;;12.80;99.90;;;;;;6216169;23;20157;-72
2023/04/19 11:29:01;;;;;;;10.90;8.20;;;12.50;99.90;;;;;;6217144;23;20173;-72
2023/04/19 11:31:28;;;;;;;11.20;8.93;;;12.40;99.90;;;;;;6218132;23;20197;-72
2023/04/19 11:33:55;;;;;;;12.00;8.70;;;12.10;99.90;;;;;;6217851;23;20176;-72
2023/04/19 11:36:21;;;;;;;10.20;7.90;;;12.00;99.90;;;;;;6217807;23;20184;-72
2023/04/19 11:38:48;;;;;;;11.63;8.63;;;12.00;99.90;;;;;;6218212;23;20385;-73
2023/04/19 11:41:15;;;;;;;11.68;8.88;;;11.80;99.90;;;;;;6218353;23;20200;-73
2023/04/19 11:43:44;;;;;;;8.88;7.97;;;11.80;99.90;;;;;;6217552;23;20191;-73
2023/04/19 11:46:13;;;;;;;8.48;6.93;;;11.70;99.90;;;;;;6217858;23;20177;-73
2023/04/19 11:48:51;;;;;;;8.68;7.18;;;11.70;99.90;;;;;;6217705;23;20180;-73
2023/04/19 11:51:18;;;;;;;7.22;6.53;;;11.80;99.90;;;;;;6217722;23;20196;-73
2023/04/19 11:53:45;;;;;;;7.55;6.32;;;12.10;99.90;;;;;;6217742;23;20184;-73
2023/04/19 11:56:14;;;;;;;6.40;5.82;;;12.40;99.90;;;;;;6217264;23;20510;-73
2023/04/19 11:58:43;;;;;;;7.00;6.30;;;12.60;99.90;;;;;;6217525;23;20275;-73
2023/04/19 12:01:12;;;;;;;6.15;5.65;;;12.70;99.90;;;;;;6217471;23;20192;-73
2023/04/19 12:03:47;;;;;;;6.20;5.60;;;12.70;99.90;;;;;;6218448;23;20176;-72
2023/04/19 12:06:15;;;;;;;7.20;5.38;;;12.80;99.90;;;;;;6221307;23;20163;-72
2023/04/19 12:08:46;;;;;;;5.53;5.03;;;13.10;99.90;;;;;;6217799;23;20169;-72
2023/04/19 12:11:14;;;;;;;5.45;4.97;;;13.30;99.90;;;;;;6217451;23;20522;-72
2023/04/19 12:13:43;;;;;;;5.93;5.32;;;13.30;99.90;;;;;;6217842;23;20507;-72
2023/04/19 12:16:10;;;;;;;5.78;5.28;;;13.00;99.90;;;;;;6217765;23;20180;-72
2023/04/19 12:18:47;;;;;;;6.50;5.88;;;13.00;99.90;;;;;;6217243;23;20523;-72
2023/04/19 12:21:27;;;;;;;5.30;4.85;;;12.80;99.90;;;;;;6217411;23;20280;-72
2023/04/19 12:23:56;;;;;;;5.00;4.60;;;12.70;99.90;;;;;;6217509;23;20168;-72
2023/04/19 12:26:22;;;;;;;4.75;4.32;;;12.50;99.90;;;;;;6217338;23;20181;-72
2023/04/19 12:28:49;;;;;;;4.78;4.45;;;12.60;99.90;;;;;;6217572;23;20547;-72
2023/04/19 12:31:16;;;;;;;4.80;4.35;;;12.60;99.90;;;;;;6217573;23;20197;-72
2023/04/19 12:33:44;;;;;;;4.45;4.05;;;12.60;99.90;;;;;;6217543;23;20173;-72
2023/04/19 12:36:10;;;;;;;4.35;4.00;;;12.70;99.90;;;;;;6217720;23;20176;-72
2023/04/19 12:38:37;;;;;;;4.22;3.92;;;12.50;99.90;;;;;;6217707;23;20193;-72
2023/04/19 12:41:04;;;;;;;4.97;4.40;;;12.50;99.90;;;;;;6217383;23;20193;-72
2023/04/19 12:43:31;;;;;;;6.05;4.50;;;12.70;99.90;;;;;;6217125;23;20191;-72
2023/04/19 12:45:58;;;;;;;6.97;6.32;;;13.00;99.90;;;;;;6217179;23;20208;-72
2023/04/19 12:48:25;;;;;;;6.43;5.88;;;13.10;99.90;;;;;;6217829;23;20180;-72
2023/04/19 12:50:54;;;;;;;6.97;5.68;;;13.50;99.90;;;;;;6217304;23;20193;-72
2023/04/19 12:53:23;;;;;;;7.25;6.55;;;13.60;99.90;;;;;;6217452;23;20227;-72
2023/04/19 12:55:50;;;;;;;7.38;6.30;;;13.60;99.90;;;;;;6217549;23;20173;-72
2023/04/19 12:58:17;;;;;;;6.75;6.15;;;13.60;99.90;;;;;;6217224;23;20227;-72
2023/04/19 13:00:44;;;;;;;7.43;6.68;;;13.60;99.90;;;;;;6217349;23;20214;-73
2023/04/19 13:03:11;;;;;;;5.95;5.45;;;13.30;99.90;;;;;;6217403;23;20255;-72
2023/04/19 13:05:38;;;;;;;5.88;5.38;;;13.00;99.90;;;;;;6216586;23;20505;-72
2023/04/19 13:08:06;;;;;;;5.43;5.00;;;12.80;99.90;;;;;;6217217;23;20177;-73
2023/04/19 13:10:33;;;;;;;7.28;5.70;;;12.70;99.90;;;;;;6216931;23;20200;-73
2023/04/19 13:13:00;;;;;;;6.70;6.03;;;12.30;99.90;;;;;;6216699;23;20656;-72
2023/04/19 13:15:27;;;;;;;7.25;6.32;;;12.00;99.90;;;;;;6217539;23;20179;-72
2023/04/19 13:17:54;;;;;;;6.28;5.60;;;11.60;99.90;;;;;;6216835;23;20199;-73
2023/04/19 13:20:20;;;;;;;5.20;4.80;;;11.30;99.90;;;;;;6216513;23;20673;-74
2023/04/19 13:22:47;;;;;;;5.18;4.78;;;11.20;99.90;;;;;;6217185;23;20176;-73
2023/04/19 13:25:15;;;;;;;5.72;5.20;;;11.10;99.90;;;;;;6216842;23;20501;-74
2023/04/19 13:27:42;;;;;;;5.57;5.05;;;11.00;99.90;;;;;;6216750;23;20173;-74
2023/04/19 13:30:09;;;;;;;5.75;5.25;;;11.10;99.90;;;;;;6216726;23;20197;-73
2023/04/19 13:32:36;;;;;;;5.75;5.15;;;11.10;99.90;;;;;;6216724;23;20487;-73
2023/04/19 13:35:03;;;;;;;5.05;4.18;;;11.10;99.90;;;;;;6216791;23;20177;-73
2023/04/19 13:37:30;;;;;;;5.68;5.13;;;11.10;99.90;;;;;;6216595;23;20239;-73
2023/04/19 13:39:56;;;;;;;5.18;4.68;;;11.00;99.90;;;;;;6216552;23;20507;-73
2023/04/19 13:42:25;;;;;;;8.32;4.70;;;10.90;99.90;;;;;;6216580;23;20181;-73
2023/04/19 13:44:51;;;;;;;5.50;4.95;;;10.90;99.90;;;;;;6216875;23;20176;-73
2023/04/19 13:47:18;;;;;;;4.68;4.38;;;10.80;99.90;;;;;;6216932;23;20518;-73
2023/04/19 13:49:50;;;;;;;5.97;5.38;;;10.80;99.90;;;;;;6216752;23;20193;-73
2023/04/19 13:52:17;;;;;;;5.85;5.30;;;10.90;99.90;;;;;;6216657;23;20161;-73
2023/04/19 13:54:44;;;;;;;6.10;5.50;;;10.80;99.90;;;;;;6216746;23;20176;-73
2023/04/19 13:57:11;;;;;;;7.50;5.80;;;10.70;99.90;;;;;;6216637;23;20223;-73
2023/04/19 13:59:39;;;;;;;5.38;4.88;;;10.70;99.90;;;;;;6217336;23;20208;-73
2023/04/19 14:02:06;;;;;;;6.30;5.72;;;10.70;99.90;;;;;;6226039;23;20173;-73
2023/04/19 14:04:33;;;;;;;5.60;5.15;;;10.70;99.90;;;;;;6223545;23;20227;-73
2023/04/19 14:07:00;;;;;;;5.15;4.68;;;10.60;99.90;;;;;;6234032;23;20163;-72
2023/04/19 14:09:27;;;;;;;7.47;5.50;;;10.60;99.90;;;;;;6231482;23;20533;-72
2023/04/19 14:11:53;;;;;;;6.05;5.47;;;10.60;99.90;;;;;;6223000;23;20172;-72
2023/04/19 14:14:21;;;;;;;6.65;5.93;;;10.60;99.90;;;;;;6220368;23;20164;-72
2023/04/19 14:16:49;;;;;;;5.72;5.22;;;10.70;99.90;;;;;;6220102;23;20669;-73
2023/04/19 14:19:16;;;;;;;6.38;5.25;;;10.80;99.90;;;;;;6219334;23;20197;-73
2023/04/19 14:21:43;;;;;;;6.13;5.63;;;11.00;99.90;;;;;;6219969;23;20177;-73
2023/04/19 14:24:10;;;;;;;6.30;5.57;;;11.00;99.90;;;;;;6220831;23;20609;-73
2023/04/19 14:26:37;;;;;;;6.05;5.55;;;10.90;99.90;;;;;;6220054;23;20176;-73
2023/04/19 14:29:05;;;;;;;7.28;5.65;;;10.90;99.90;;;;;;6220615;23;20230;-74
2023/04/19 14:31:33;;;;;;;6.03;5.43;;;10.90;99.90;;;;;;6220932;23;20228;-74
2023/04/19 14:34:01;;;;;;;6.75;6.07;;;10.80;99.90;;;;;;6220805;23;20184;-71
2023/04/19 14:36:28;;;;;;;6.18;5.38;;;10.70;99.90;;;;;;6221075;23;20223;-73
2023/04/19 14:38:55;;;;;;;6.03;5.53;;;10.70;99.90;;;;;;6221332;23;20212;-73
2023/04/19 14:41:23;;;;;;;6.43;5.82;;;10.70;99.90;;;;;;6220959;23;20193;-73
2023/04/19 14:43:50;;;;;;;7.55;6.80;;;10.70;99.90;;;;;;6220633;23;20181;-73
2023/04/19 14:46:17;;;;;;;8.93;6.00;;;10.60;99.90;;;;;;6219906;23;20622;-74
2023/04/19 14:48:45;;;;;;;7.78;6.35;;;10.50;99.90;;;;;;6220548;23;20169;-74
2023/04/19 14:51:13;;;;;;;9.63;7.05;;;10.50;99.90;;;;;;6220967;23;20192;-74
2023/04/19 14:53:40;;;;;;;6.70;6.05;;;10.50;99.90;;;;;;6222265;23;20203;-73
2023/04/19 14:56:08;;;;;;;9.75;7.25;;;10.50;99.90;;;;;;6220901;23;20208;-73
2023/04/19 14:58:36;;;;;;;9.75;7.65;;;10.40;99.90;;;;;;6221315;23;20192;-73
2023/04/19 15:01:11;;;;;;;10.27;7.97;;;10.20;99.90;;;;;;6220608;23;20716;-73
2023/04/19 15:03:43;;;;;;;10.40;7.38;;;10.10;99.90;;;;;;6220698;23;20180;-73
2023/04/19 15:06:10;;;;;;;11.68;7.30;;;10.00;99.90;;;;;;6218024;23;20298;-74
2023/04/19 15:08:38;;;;;;;8.27;7.32;;;9.90;99.90;;;;;;6216326;23;20175;-72
2023/04/19 15:11:04;;;;;;;10.38;8.85;;;9.70;99.90;;;;;;6216059;23;20201;-72
2023/04/19 15:13:32;;;;;;;12.57;9.65;;;9.70;99.90;;;;;;6215806;23;20181;-72
2023/04/19 15:16:00;;;;;;;10.68;9.25;;;9.60;99.90;;;;;;6215682;23;20638;-72
2023/04/19 15:18:26;;;;;;;9.45;8.52;;;9.60;99.90;;;;;;6216090;23;20266;-73
2023/04/19 15:20:53;;;;;;;11.77;8.77;;;9.60;99.90;;;;;;6215957;23;20192;-73
2023/04/19 15:23:24;;;;;;;12.43;8.75;;;9.40;99.90;;;;;;6216208;23;20184;-73
2023/04/19 15:25:52;;;;;;;11.20;9.23;;;9.30;99.90;;;;;;6216682;23;20455;-72
2023/04/19 15:28:19;;;;;;;13.60;9.35;;;9.10;99.90;;;;;;6216194;23;20169;-71
2023/04/19 15:30:53;;;;;;;14.18;9.40;;;9.10;99.90;;;;;;6215917;23;20250;-71
2023/04/19 15:33:20;;;;;;;12.02;9.25;;;8.90;99.90;;;;;;6215979;23;20156;-71
2023/04/19 15:35:51;;;;;;;12.25;9.90;;;8.90;99.90;;;;;;6216507;23;20180;-70
2023/04/19 15:38:17;;;;;;;12.55;10.27;;;8.90;99.90;;;;;;6216199;23;20184;-70
2023/04/19 15:40:44;;;;;;;12.88;10.43;;;8.80;99.90;;;;;;6215553;23;20693;-70
2023/04/19 15:43:12;;;;;;;11.75;9.35;;;8.70;99.90;;;;;;6215442;23;20653;-70
2023/04/19 15:45:39;;;;;;;12.02;10.15;;;8.80;99.90;;;;;;6216048;23;20192;-71
2023/04/19 15:48:07;;;;;;;14.30;11.02;;;8.70;99.90;;;;;;6216207;23;20223;-71
2023/04/19 15:50:35;;;;;;;14.73;11.38;;;8.70;99.90;;;;;;6215906;23;20192;-71
2023/04/19 15:53:02;;;;;;;12.43;9.93;;;8.70;99.90;;;;;;6215912;23;20196;-71
2023/04/19 15:55:29;;;;;;;12.82;10.38;;;8.70;99.90;;;;;;6215909;23;20185;-71
2023/04/19 15:57:56;;;;;;;11.88;10.45;;;8.60;99.90;;;;;;6215629;23;20173;-71
2023/04/19 16:00:25;;;;;;;17.70;11.30;;;8.60;99.90;;;;;;6215697;23;20200;-71
2023/04/19 16:02:52;;;;;;;17.85;12.90;;;8.50;99.90;;;;;;6215707;23;20177;-70
2023/04/19 16:05:19;;;;;;;18.85;13.23;;;8.40;99.90;;;;;;6215814;23;20504;-70
2023/04/19 16:07:46;;;;;;;18.65;13.15;;;8.20;99.90;;;;;;6215708;23;20177;-71
2023/04/19 16:10:14;;;;;;;17.58;12.30;;;8.20;99.90;;;;;;6215606;23;20200;-70
2023/04/19 16:12:41;;;;;;;19.17;13.23;;;8.20;99.90;;;;;;6215853;23;20173;-71
2023/04/19 16:15:08;;;;;;;13.88;11.20;;;8.20;99.90;;;;;;6217034;23;20256;-70
2023/04/19 16:17:36;;;;;;;12.75;10.90;;;8.20;99.90;;;;;;6217769;23;20177;-70
2023/04/19 16:20:04;;;;;;;12.55;10.38;;;8.20;99.90;;;;;;6217367;23;20200;-70
2023/04/19 16:22:31;;;;;;;14.38;10.77;;;8.20;99.90;;;;;;6217622;23;20256;-70
2023/04/19 16:24:58;;;;;;;13.38;10.55;;;8.20;99.90;;;;;;6218080;23;20177;-71
2023/04/19 16:27:25;;;;;;;16.15;11.18;;;8.20;99.90;;;;;;6217335;23;20661;-71
2023/04/19 16:29:52;;;;;;;15.70;11.57;;;8.20;99.90;;;;;;6217146;23;20514;-71
2023/04/19 16:32:19;;;;;;;14.05;10.63;;;8.20;99.90;;;;;;6217591;23;20195;-70
2023/04/19 16:34:47;;;;;;;15.15;11.55;;;8.30;99.90;;;;;;6217013;23;20177;-71
2023/04/19 16:37:15;;;;;;;14.82;12.15;;;8.20;99.90;;;;;;6217663;23;20184;-70
2023/04/19 16:39:41;;;;;;;18.63;12.65;;;8.20;99.90;;;;;;6217442;23;20243;-70
2023/04/19 16:42:08;;;;;;;16.02;11.43;;;8.20;99.90;;;;;;6217673;23;20192;-70
2023/04/19 16:44:35;;;;;;;13.95;11.43;;;8.20;99.90;;;;;;6217028;23;20642;-70
2023/04/19 16:47:02;;;;;;;16.77;10.35;;;8.20;99.90;;;;;;6217764;23;20279;-72
2023/04/19 16:49:29;;;;;;;12.55;8.70;;;8.20;99.90;;;;;;6217340;23;20188;-72
2023/04/19 16:51:57;;;;;;;14.20;9.60;;;8.20;99.90;;;;;;6217373;23;20184;-70
2023/04/19 16:54:24;;;;;;;10.00;8.38;;;8.20;99.90;;;;;;6217159;22;20176;-68
2023/04/19 16:56:51;;;;;;;10.63;8.23;;;8.20;99.90;;;;;;6217512;23;20165;-67
2023/04/19 16:59:17;;;;;;;9.63;8.05;;;8.20;99.90;;;;;;6217159;23;20204;-67
2023/04/19 17:01:44;;;;;;;8.70;7.22;;;8.20;99.90;;;;;;6217138;23;20176;-67
2023/04/19 17:04:11;;;;;;;8.95;6.97;;;8.10;99.90;;;;;;6217054;23;20184;-67
2023/04/19 17:06:37;;;;;;;8.63;6.65;;;8.10;99.90;;;;;;6216797;23;20711;-68
2023/04/19 17:09:06;;;;;;;7.05;6.20;;;8.10;99.90;;;;;;6216783;23;20653;-67
2023/04/19 17:11:33;;;;;;;6.40;5.80;;;8.10;99.90;;;;;;6216873;23;20173;-67
2023/04/19 17:14:00;;;;;;;5.53;5.03;;;8.00;99.90;;;;;;6216836;23;20172;-67
2023/04/19 17:16:27;;;;;;;4.60;4.20;;;7.90;99.90;;;;;;6216758;23;20231;-67
2023/04/19 17:18:55;;;;;;;3.90;3.60;;;7.80;99.90;;;;;;6216684;23;20495;-68
2023/04/19 17:21:22;;;;;;;3.05;2.85;;;7.60;99.90;;;;;;6216804;23;20161;-68
2023/04/19 17:23:49;;;;;;;3.80;3.50;;;7.40;99.90;;;;;;6217101;23;20177;-67
2023/04/19 17:26:17;;;;;;;4.45;4.05;;;7.30;99.90;;;;;;6216080;23;20677;-68
2023/04/19 17:28:43;;;;;;;4.15;3.90;;;7.10;99.90;;;;;;6216900;23;20537;-67
2023/04/19 17:31:11;;;;;;;6.90;5.00;;;7.00;99.90;;;;;;6216838;23;20184;-67
2023/04/19 17:33:37;;;;;;;9.25;5.95;;;6.80;99.90;;;;;;6217047;23;20181;-67
2023/04/19 17:36:05;;;;;;;5.45;4.95;;;6.70;99.90;;;;;;6216838;23;20192;-67
2023/04/19 17:38:32;;;;;;;6.72;5.75;;;6.60;99.90;;;;;;6216599;23;20173;-68
2023/04/19 17:40:59;;;;;;;6.60;5.55;;;6.60;99.90;;;;;;6216467;23;20633;-68
2023/04/19 17:43:27;;;;;;;6.22;5.60;;;6.50;99.90;;;;;;6216724;23;20176;-67
2023/04/19 17:45:53;;;;;;;5.95;5.45;;;6.40;99.90;;;;;;6216987;23;20192;-68
2023/04/19 17:48:20;;;;;;;6.40;5.80;;;6.30;99.90;;;;;;6216495;23;20590;-68
2023/04/19 17:50:47;;;;;;;6.38;5.78;;;6.30;99.90;;;;;;6217191;23;20180;-69
2023/04/19 17:53:14;;;;;;;6.18;5.65;;;6.30;99.90;;;;;;6221373;23;20161;-69
2023/04/19 17:55:41;;;;;;;6.65;6.03;;;6.20;99.90;;;;;;6219836;23;20242;-69
2023/04/19 17:58:08;;;;;;;6.88;6.03;;;6.10;99.90;;;;;;6221268;23;20646;-68
2023/04/19 18:00:37;;;;;;;6.20;5.60;;;6.00;99.90;;;;;;6221177;23;20561;-69
2023/04/19 18:03:05;;;;;;;6.57;5.60;;;6.00;99.90;;;;;;6219757;23;20168;-69
2023/04/19 18:05:32;;;;;;;8.98;6.78;;;5.90;99.90;;;;;;6216845;23;20227;-69
2023/04/19 18:07:59;;;;;;;7.97;6.47;;;5.80;99.90;;;;;;6216722;23;20514;-70
2023/04/19 18:10:26;;;;;;;8.85;7.35;;;5.90;99.90;;;;;;6216374;23;20545;-68
2023/04/19 18:12:53;;;;;;;8.15;6.40;;;5.80;99.90;;;;;;6216576;23;20177;-69
2023/04/19 18:15:20;;;;;;;8.40;6.65;;;5.80;99.90;;;;;;6216742;23;20203;-68
2023/04/19 18:17:49;;;;;;;6.60;5.97;;;5.90;99.90;;;;;;6217013;23;20233;-68
2023/04/19 18:20:16;;;;;;;6.95;6.07;;;5.90;99.90;;;;;;6216583;23;20177;-69
2023/04/19 18:22:42;;;;;;;6.38;5.78;;;5.90;99.90;;;;;;6216812;23;20173;-68
2023/04/19 18:25:09;;;;;;;6.20;5.63;;;5.90;99.90;;;;;;6216772;23;20196;-68
2023/04/19 18:27:36;;;;;;;8.13;7.32;;;5.90;99.90;;;;;;6216337;23;20172;-69
2023/04/19 18:30:04;;;;;;;12.70;7.95;;;5.90;99.90;;;;;;6216581;23;20180;-68
2023/04/19 18:32:31;;;;;;;9.52;6.97;;;5.80;99.90;;;;;;6216349;23;20176;-69
2023/04/19 18:34:59;;;;;;;8.70;7.05;;;5.80;99.90;;;;;;6216256;23;20204;-69
2023/04/19 18:37:26;;;;;;;7.30;6.60;;;5.80;99.90;;;;;;6216087;23;20514;-69
2023/04/19 18:39:52;;;;;;;7.53;6.72;;;5.80;99.90;;;;;;6216582;23;20189;-69
2023/04/19 18:42:19;;;;;;;9.10;7.22;;;5.80;99.90;;;;;;6217583;23;20642;-68
2023/04/19 18:44:46;;;;;;;8.25;7.35;;;5.80;99.90;;;;;;6216636;23;20200;-68
2023/04/19 18:47:13;;;;;;;6.80;6.10;;;5.80;99.90;;;;;;6217591;23;20176;-69
2023/04/19 18:49:39;;;;;;;7.68;6.88;;;5.80;99.90;;;;;;6216528;23;20173;-69
2023/04/19 18:52:07;;;;;;;8.82;6.93;;;5.80;99.90;;;;;;6216201;23;20177;-68
2023/04/19 18:54:34;;;;;;;9.88;7.70;;;5.80;99.90;;;;;;6215988;23;20173;-69
2023/04/19 18:57:01;;;;;;;11.43;7.68;;;5.70;99.90;;;;;;6216343;23;20617;-70
2023/04/19 18:59:28;;;;;;;8.48;6.78;;;5.80;99.90;;;;;;6215906;23;20216;-70
2023/04/19 19:01:55;;;;;;;7.25;6.53;;;5.80;99.90;;;;;;6216334;23;20172;-70
2023/04/19 19:04:23;;;;;;;9.90;7.88;;;5.80;99.90;;;;;;6216027;23;20173;-69
2023/04/19 19:06:50;;;;;;;11.02;7.68;;;5.80;99.90;;;;;;6216849;23;20198;-69
2023/04/19 19:09:18;;;;;;;8.43;6.85;;;5.80;99.90;;;;;;6216354;23;20168;-69
2023/04/19 19:11:45;;;;;;;9.73;7.32;;;5.80;99.90;;;;;;6216031;23;20184;-69
2023/04/19 19:14:11;;;;;;;9.80;7.45;;;5.80;99.90;;;;;;6216300;23;20173;-70
2023/04/19 19:16:38;;;;;;;8.38;7.43;;;5.70;99.90;;;;;;6215902;23;20200;-69
2023/04/19 19:19:07;;;;;;;11.02;7.10;;;5.70;99.90;;;;;;6216210;23;20177;-69
2023/04/19 19:21:34;;;;;;;8.00;6.97;;;5.70;99.90;;;;;;6215524;23;20510;-69
2023/04/19 19:24:01;;;;;;;8.65;7.72;;;5.70;99.90;;;;;;6215784;23;20211;-70
2023/04/19 19:26:29;;;;;;;10.43;6.97;;;5.70;99.90;;;;;;6215863;23;20192;-68
2023/04/19 19:28:57;;;;;;;11.48;7.30;;;5.70;99.90;;;;;;6215662;23;20232;-68
2023/04/19 19:31:24;;;;;;;6.82;6.20;;;5.70;99.90;;;;;;6215694;23;20622;-67
2023/04/19 19:33:51;;;;;;;7.10;6.40;;;5.70;99.90;;;;;;6216281;23;20180;-68
2023/04/19 19:36:18;;;;;;;7.72;5.97;;;5.80;99.90;;;;;;6215876;23;20201;-68
2023/04/19 19:38:44;;;;;;;6.90;6.20;;;5.80;99.90;;;;;;6216025;23;20487;-68
2023/04/19 19:41:11;;;;;;;8.57;6.90;;;5.80;99.90;;;;;;6215761;23;20203;-68
2023/04/19 19:43:40;;;;;;;8.07;6.43;;;5.80;99.90;;;;;;6216017;23;20177;-68
2023/04/19 19:46:07;;;;;;;12.70;8.90;;;5.80;99.90;;;;;;6216035;23;20192;-67
2023/04/19 19:48:33;;;;;;;9.30;8.15;;;5.80;99.90;;;;;;6216125;23;20180;-68
2023/04/19 19:51:01;;;;;;;8.38;6.75;;;5.80;99.90;;;;;;6217452;23;20642;-68
2023/04/19 19:53:28;;;;;;;8.02;6.68;;;5.80;99.90;;;;;;6217417;23;20248;-68
2023/04/19 19:55:54;;;;;;;7.38;6.68;;;5.80;99.90;;;;;;6217490;23;20204;-68
2023/04/19 19:58:21;;;;;;;7.72;7.03;;;5.70;99.90;;;;;;6217725;23;20184;-68
2023/04/19 20:00:49;;;;;;;6.97;6.13;;;5.80;99.90;;;;;;6217758;23;20216;-68
2023/04/19 20:03:16;;;;;;;6.35;5.75;;;5.80;99.90;;;;;;6217823;23;20263;-67
2023/04/19 20:05:42;;;;;;;6.88;6.10;;;5.80;99.90;;;;;;6217606;23;20250;-67
2023/04/19 20:08:11;;;;;;;6.30;5.60;;;5.80;99.90;;;;;;6217811;23;20179;-67
2023/04/19 20:10:39;;;;;;;7.10;6.18;;;5.80;99.90;;;;;;6217766;23;20193;-68
2023/04/19 20:13:06;;;;;;;6.43;5.78;;;5.80;99.90;;;;;;6217972;23;20216;-68
2023/04/19 20:15:33;;;;;;;5.43;5.03;;;5.80;99.90;;;;;;6217613;23;20193;-68
2023/04/19 20:18:01;;;;;;;6.25;4.95;;;5.90;99.90;;;;;;6219875;23;20482;-67
2023/04/19 20:20:27;;;;;;;5.65;5.15;;;5.80;99.90;;;;;;6219743;23;20253;-67
2023/04/19 20:22:54;;;;;;;5.35;4.85;;;5.90;99.90;;;;;;6218321;23;20634;-67
2023/04/19 20:25:21;;;;;;;6.63;6.03;;;5.90;99.90;;;;;;6229162;23;20200;-68
2023/04/19 20:27:48;;;;;;;6.57;5.82;;;5.90;99.90;;;;;;6224920;23;20172;-67
